Menalon — SXCH — position and weather

sailwx.info

Track history (hours):
 
Tides and Currents Weather Stations Pressure Air Temp Water Temp Dewpoint Dewpoint Depression Visibility Wind Speed Wind Dir Waves Ship Positions

Menalon

Last reported at 2014-Oct-25 19:33 UTC. Time now 2014-Oct-25 20:35 UTC.
Position N 38°02' E 023°35'.

; draft 4 m.

Type: Ship (hazmat cat C). MMSI: 239741000.

Date/timePositionNaut miles runAvg speedWind from/ knotsBaromVisibWave heightAir tempDewpointWater temp
2014-Oct-25 19:33N 38°02' E 023°35'0 0.0
2014-Oct-25 18:33N 38°02' E 023°35'0 0.0
2014-Oct-25 17:33N 38°02' E 023°35'0 0.0
2014-Oct-25 16:33N 38°02' E 023°35'7 7.0
2014-Oct-25 15:33N 37°60' E 023°27'8 8.4
2014-Oct-25 14:33N 37°56' E 023°17'10 8.9
2014-Oct-25 13:28N 37°55' E 023°05'0 0.0
2014-Oct-25 08:19N 37°55' E 023°05'16 9.3
2014-Oct-25 06:33N 37°52' E 023°25'9 9.0
2014-Oct-25 05:33N 37°57' E 023°35'0 0.3
2014-Oct-25 04:33N 37°57' E 023°34'0 0.0
2014-Oct-25 03:33N 37°57' E 023°35'0 0.0
2014-Oct-25 02:33N 37°57' E 023°35'0 0.0
2014-Oct-25 01:33N 37°57' E 023°35'0 0.0
2014-Oct-25 00:33N 37°57' E 023°35'0 0.0
2014-Oct-24 23:34N 37°57' E 023°35'0 0.1
2014-Oct-24 22:34N 37°57' E 023°35'0 0.0
2014-Oct-24 21:33N 37°57' E 023°35'0 0.0
2014-Oct-24 20:33N 37°57' E 023°35'0 0.0
2014-Oct-24 19:33N 37°57' E 023°35'0 0.0
2014-Oct-24 18:33N 37°57' E 023°35'0 0.1
2014-Oct-24 17:34N 37°57' E 023°35'0 0.0
2014-Oct-24 16:33N 37°57' E 023°35'0 0.0
2014-Oct-24 15:34N 37°57' E 023°35'0 0.0
2014-Oct-24 14:33N 37°57' E 023°34'0 0.0
2014-Oct-24 13:33N 37°57' E 023°35'0 0.0
2014-Oct-24 12:33N 37°57' E 023°35'0 0.1
2014-Oct-24 11:33N 37°57' E 023°34'0 0.0
2014-Oct-24 10:33N 37°57' E 023°34'0 0.1
2014-Oct-24 09:33N 37°57' E 023°34'0 0.0
2014-Oct-24 08:34N 37°57' E 023°34'0 0.0
2014-Oct-24 07:33N 37°57' E 023°34'0 0.0
2014-Oct-24 06:33N 37°57' E 023°34'0 0.1
2014-Oct-24 05:33N 37°57' E 023°35'0 0.0
2014-Oct-24 04:33N 37°57' E 023°35'0 0.1
2014-Oct-24 03:33N 37°57' E 023°34'0 0.0
2014-Oct-24 02:33N 37°57' E 023°34'0 0.0
2014-Oct-24 01:33N 37°57' E 023°34'1 0.7
2014-Oct-24 00:33N 37°57' E 023°35'0 0.0
2014-Oct-23 23:34N 37°57' E 023°35'0 0.0
2014-Oct-23 22:33N 37°57' E 023°35'0 0.0
2014-Oct-23 21:34N 37°57' E 023°35'3 2.9
2014-Oct-23 20:33N 37°55' E 023°34'5 5.1
2014-Oct-23 19:33N 37°50' E 023°31'0 0.0
2014-Oct-23 18:33N 37°50' E 023°31'0 0.0
2014-Oct-23 17:33N 37°50' E 023°31'0 0.0
2014-Oct-23 16:33N 37°50' E 023°31'0 0.0
2014-Oct-23 15:33N 37°50' E 023°31'0 0.0
2014-Oct-23 14:33N 37°50' E 023°31'0 0.2
2014-Oct-23 13:33N 37°50' E 023°31'0 0.1
2014-Oct-23 12:33N 37°50' E 023°31'1 0.6
2014-Oct-23 11:33N 37°50' E 023°32'8 7.5
2014-Oct-23 10:33N 37°57' E 023°35'0 0.0
2014-Oct-23 09:33N 37°57' E 023°35'0 0.0
2014-Oct-23 08:33N 37°57' E 023°35'0 0.0
2014-Oct-23 07:34N 37°57' E 023°35'0 0.1
2014-Oct-23 06:34N 37°58' E 023°34'0 0.0
2014-Oct-23 05:33N 37°58' E 023°34'0 0.0
2014-Oct-23 04:34N 37°58' E 023°34'0 0.0
2014-Oct-23 03:33N 37°58' E 023°34'0 0.0
2014-Oct-23 02:33N 37°58' E 023°34'0 0.0
2014-Oct-23 01:33N 37°58' E 023°34'0 0.0
2014-Oct-23 00:33N 37°58' E 023°34'0 0.0
2014-Oct-22 23:34N 37°58' E 023°34'0 0.0
2014-Oct-22 22:33N 37°58' E 023°34'0 0.0
2014-Oct-22 21:33N 37°58' E 023°34'0 0.0
2014-Oct-22 20:33N 37°58' E 023°34'0 0.0
2014-Oct-22 19:33N 37°58' E 023°34'0 0.0
2014-Oct-22 18:33N 37°58' E 023°34'0 0.0
2014-Oct-22 17:34N 37°58' E 023°34'0 0.0
2014-Oct-22 16:34N 37°58' E 023°34'0 0.0
2014-Oct-22 15:33N 37°58' E 023°34'0 0.0
2014-Oct-22 14:33N 37°57' E 023°34'0 0.0
2014-Oct-22 13:33N 37°58' E 023°34'0 0.0
2014-Oct-22 12:34N 37°58' E 023°34'3 3.2
2014-Oct-22 11:34N 37°56' E 023°38'0 0.0
2014-Oct-22 10:33N 37°56' E 023°38'0 0.0
2014-Oct-22 09:34N 37°56' E 023°38'0 0.0
2014-Oct-22 08:33N 37°56' E 023°38'0 0.0
2014-Oct-22 07:34N 37°56' E 023°38'0 0.0
2014-Oct-22 06:33N 37°56' E 023°38'1 1.3
2014-Oct-22 05:33N 37°57' E 023°37'2 1.8
2014-Oct-22 04:33N 37°57' E 023°35'0 0.0
2014-Oct-22 03:33N 37°57' E 023°35'0 0.0
2014-Oct-22 02:33N 37°57' E 023°35'0 0.0
2014-Oct-22 01:34N 37°57' E 023°35'0 0.0
2014-Oct-22 00:33N 37°57' E 023°35'0 0.0
2014-Oct-21 23:34N 37°57' E 023°35'0 0.0
2014-Oct-21 22:34N 37°57' E 023°35'0 0.0
2014-Oct-21 21:33N 37°57' E 023°35'5 5.4
2014-Oct-21 20:33N 37°52' E 023°32'1 0.6
2014-Oct-21 19:33N 37°52' E 023°32'0 0.0
2014-Oct-21 18:33N 37°52' E 023°32'0 0.0
2014-Oct-21 16:33N 37°52' E 023°32'4 3.8
2014-Oct-21 15:33N 37°55' E 023°34'2 2.4
2014-Oct-21 14:33N 37°57' E 023°36'0 0.0
2014-Oct-21 13:33N 37°57' E 023°36'3 3.4
2014-Oct-21 12:33N 37°60' E 023°33'3 2.7
2014-Oct-21 11:33N 38°02' E 023°36'0 0.0
2014-Oct-21 10:33N 38°02' E 023°36'0 0.0
2014-Oct-21 09:33N 38°02' E 023°36'0 0.0
2014-Oct-21 08:33N 38°02' E 023°36'0 0.0
2014-Oct-21 07:33N 38°02' E 023°36'0 0.0
2014-Oct-21 06:33N 38°02' E 023°36'0 0.0
2014-Oct-21 05:33N 38°02' E 023°36'0 0.0
2014-Oct-21 04:33N 38°02' E 023°36'0 0.0
2014-Oct-21 03:33N 38°02' E 023°36'0 0.0
2014-Oct-21 02:33N 38°02' E 023°36'0 0.4
2014-Oct-21 01:33N 38°02' E 023°35'0 0.1
2014-Oct-21 00:33N 38°02' E 023°35'0 0.0
2014-Oct-20 23:33N 38°02' E 023°35'0 0.0
2014-Oct-20 22:20N 38°02' E 023°35'0 0.0
2014-Oct-20 21:33N 38°02' E 023°35'0 0.0
2014-Oct-20 20:23N 38°02' E 023°35'0 0.0
2014-Oct-20 19:32N 38°02' E 023°35'4 4.5
2014-Oct-20 18:33N 37°58' E 023°33'7 6.6
2014-Oct-20 17:33N 37°51' E 023°31'0 0.1
2014-Oct-20 16:33N 37°51' E 023°31'0 0.1
2014-Oct-20 15:33N 37°51' E 023°31'0 0.0
2014-Oct-20 14:33N 37°51' E 023°31'0 0.0
2014-Oct-20 13:33N 37°51' E 023°31'0 0.0
2014-Oct-20 12:33N 37°51' E 023°31'4 3.7
2014-Oct-20 11:33N 37°54' E 023°34'3 3.3
2014-Oct-20 10:33N 37°57' E 023°34'0 0.0
2014-Oct-20 09:33N 37°57' E 023°34'0 0.0
2014-Oct-20 08:33N 37°57' E 023°34'0 0.0
2014-Oct-20 07:33N 37°57' E 023°34'0 0.0
2014-Oct-20 06:34N 37°57' E 023°34'0 0.0
2014-Oct-20 05:33N 37°57' E 023°34'0 0.0
2014-Oct-20 04:33N 37°57' E 023°34'0 0.0
2014-Oct-20 03:33N 37°57' E 023°34'0 0.0
2014-Oct-20 02:33N 37°57' E 023°34'0 0.0
2014-Oct-20 01:33N 37°57' E 023°34'0 0.0
2014-Oct-20 00:33N 37°57' E 023°34'0 0.0
2014-Oct-19 23:33N 37°57' E 023°34'0 0.0
2014-Oct-19 22:33N 37°57' E 023°34'0 0.0
2014-Oct-19 21:33N 37°57' E 023°34'0 0.0
2014-Oct-19 20:33N 37°57' E 023°34'0 0.0
2014-Oct-19 19:33N 37°57' E 023°34'0 0.0
2014-Oct-19 18:33N 37°57' E 023°34'0 0.0
2014-Oct-19 17:33N 37°57' E 023°34'0 0.0
2014-Oct-19 16:33N 37°57' E 023°34'0 0.0
2014-Oct-19 15:33N 37°57' E 023°34'0 0.0
2014-Oct-19 14:33N 37°57' E 023°34'0 0.0
2014-Oct-19 13:33N 37°57' E 023°34'0 0.0
2014-Oct-19 12:33N 37°57' E 023°34'0 0.0
2014-Oct-19 11:33N 37°57' E 023°34'0 0.0
2014-Oct-19 10:33N 37°57' E 023°34'0 0.0
2014-Oct-19 09:33N 37°57' E 023°34'0 0.0
2014-Oct-19 08:33N 37°57' E 023°34'0 0.0
2014-Oct-19 07:33N 37°57' E 023°34'0 0.0
2014-Oct-19 06:33N 37°57' E 023°34'0 0.0
2014-Oct-19 05:33N 37°57' E 023°34'0 0.0
2014-Oct-19 04:33N 37°57' E 023°34'0 0.0
2014-Oct-19 03:33N 37°57' E 023°34'0 0.1
2014-Oct-19 02:33N 37°57' E 023°34'0 0.0
2014-Oct-19 01:33N 37°57' E 023°34'0 0.0
2014-Oct-19 00:33N 37°57' E 023°34'0 0.0
2014-Oct-18 23:33N 37°57' E 023°34'0 0.0
2014-Oct-18 22:33N 37°57' E 023°34'0 0.0
2014-Oct-18 21:33N 37°57' E 023°34'0 0.0
2014-Oct-18 20:33N 37°57' E 023°34'0 0.0
2014-Oct-18 19:33N 37°57' E 023°34'0 0.0
2014-Oct-18 18:33N 37°57' E 023°34'0 0.1
2014-Oct-18 17:33N 37°57' E 023°34'0 0.0
2014-Oct-18 16:33N 37°57' E 023°34'0 0.0
2014-Oct-18 15:33N 37°57' E 023°34'0 0.0
2014-Oct-18 14:33N 37°57' E 023°34'0 0.1
2014-Oct-18 13:33N 37°57' E 023°34'0 0.0
2014-Oct-18 12:33N 37°57' E 023°34'0 0.0
2014-Oct-18 11:33N 37°57' E 023°34'0 0.0
2014-Oct-18 10:33N 37°57' E 023°34'0 0.0
2014-Oct-18 09:33N 37°57' E 023°34'0 0.0
2014-Oct-18 08:33N 37°57' E 023°34'0 0.0
2014-Oct-18 07:33N 37°57' E 023°34'0 0.0
2014-Oct-18 06:33N 37°57' E 023°34'0 0.0
2014-Oct-18 05:33N 37°57' E 023°34'0 0.0
2014-Oct-18 04:33N 37°57' E 023°34'0 0.0
2014-Oct-18 03:33N 37°57' E 023°34'0 0.0
2014-Oct-18 02:33N 37°57' E 023°34'0 0.1
2014-Oct-18 01:33N 37°57' E 023°34'8 7.7
2014-Oct-18 00:33N 37°52' E 023°27'1210.9
2014-Oct-17 23:28N 37°54' E 023°13'6 6.6
2014-Oct-17 22:33N 37°55' E 023°05'0 0.0
2014-Oct-17 21:33N 37°55' E 023°05'0 0.0
2014-Oct-17 20:30N 37°55' E 023°05'0 0.0
2014-Oct-17 19:20N 37°55' E 023°05'0 0.0
2014-Oct-17 18:32N 37°55' E 023°05'0 0.0
2014-Oct-17 17:33N 37°55' E 023°05'0 0.0
2014-Oct-17 16:30N 37°55' E 023°05'0 0.0
2014-Oct-17 15:33N 37°55' E 023°05'0 0.0
2014-Oct-17 14:26N 37°55' E 023°05'0 0.0
2014-Oct-17 13:30N 37°55' E 023°05'15 3.0
2014-Oct-17 08:33N 37°52' E 023°23'7 6.6
2014-Oct-17 07:33N 37°53' E 023°32'0 0.0
2014-Oct-17 06:33N 37°53' E 023°32'0 0.1
2014-Oct-17 05:33N 37°53' E 023°32'0 0.0
2014-Oct-17 04:33N 37°53' E 023°32'0 0.1
2014-Oct-17 03:33N 37°53' E 023°32'0 0.1
2014-Oct-17 02:33N 37°52' E 023°32'0 0.1
2014-Oct-17 01:33N 37°53' E 023°32'0 0.1
2014-Oct-17 00:33N 37°53' E 023°32'5 4.9
2014-Oct-16 23:31N 37°57' E 023°35'0 0.0
2014-Oct-16 22:33N 37°57' E 023°35'0 0.0
2014-Oct-16 21:33N 37°57' E 023°35'0 0.0
2014-Oct-16 20:33N 37°57' E 023°35'0 0.0
2014-Oct-16 19:33N 37°57' E 023°35'0 0.0
2014-Oct-16 18:33N 37°57' E 023°35'0 0.0
2014-Oct-16 17:33N 37°57' E 023°35'0 0.0
2014-Oct-16 16:33N 37°57' E 023°35'0 0.0
2014-Oct-16 15:33N 37°57' E 023°35'0 0.0
2014-Oct-16 14:33N 37°57' E 023°35'0 0.2
2014-Oct-16 13:33N 37°57' E 023°34'0 0.0
2014-Oct-16 12:33N 37°57' E 023°34'0 0.0
2014-Oct-16 11:33N 37°57' E 023°34'0 0.0
2014-Oct-16 10:33N 37°57' E 023°34'0 0.0
2014-Oct-16 09:33N 37°57' E 023°34'0 0.1
2014-Oct-16 08:33N 37°57' E 023°34'1 1.1
2014-Oct-16 07:33N 37°57' E 023°36'1 1.0
2014-Oct-16 06:33N 37°57' E 023°34'0 0.2
2014-Oct-16 05:33N 37°57' E 023°34'0 0.0
2014-Oct-16 04:33N 37°57' E 023°34'0 0.0
2014-Oct-16 03:33N 37°57' E 023°34'0 0.0
2014-Oct-16 02:33N 37°57' E 023°34'0 0.0
2014-Oct-16 01:33N 37°57' E 023°34'0 0.0
2014-Oct-16 00:33N 37°57' E 023°34'0 0.0
2014-Oct-15 23:33N 37°57' E 023°34'0 0.0
2014-Oct-15 22:32N 37°57' E 023°34'0 0.0
2014-Oct-15 21:33N 37°57' E 023°34'0 0.0
2014-Oct-15 20:33N 37°57' E 023°34'  
Track history (hours):
 
Tides and Currents Weather Stations Pressure Air Temp Water Temp Dewpoint Dewpoint Depression Visibility Wind Speed Wind Dir Waves Ship Positions

Menalon

Last reported at 2014-Oct-25 19:33 UTC. Time now 2014-Oct-25 20:35 UTC.
Position N 38°02' E 023°35'.

; draft 4 m.

Type: Ship (hazmat cat C). MMSI: 239741000.

Date/timePositionNaut miles runAvg speedWind from/ knotsBaromVisibWave heightAir tempDewpointWater temp
2014-Oct-25 19:33N 38°02' E 023°35'0 0.0
2014-Oct-25 18:33N 38°02' E 023°35'0 0.0
2014-Oct-25 17:33N 38°02' E 023°35'0 0.0
2014-Oct-25 16:33N 38°02' E 023°35'7 7.0
2014-Oct-25 15:33N 37°60' E 023°27'8 8.4
2014-Oct-25 14:33N 37°56' E 023°17'10 8.9
2014-Oct-25 13:28N 37°55' E 023°05'0 0.0
2014-Oct-25 08:19N 37°55' E 023°05'16 9.3
2014-Oct-25 06:33N 37°52' E 023°25'9 9.0
2014-Oct-25 05:33N 37°57' E 023°35'0 0.3
2014-Oct-25 04:33N 37°57' E 023°34'0 0.0
2014-Oct-25 03:33N 37°57' E 023°35'0 0.0
2014-Oct-25 02:33N 37°57' E 023°35'0 0.0
2014-Oct-25 01:33N 37°57' E 023°35'0 0.0
2014-Oct-25 00:33N 37°57' E 023°35'0 0.0
2014-Oct-24 23:34N 37°57' E 023°35'0 0.1
2014-Oct-24 22:34N 37°57' E 023°35'0 0.0
2014-Oct-24 21:33N 37°57' E 023°35'0 0.0
2014-Oct-24 20:33N 37°57' E 023°35'0 0.0
2014-Oct-24 19:33N 37°57' E 023°35'0 0.0
2014-Oct-24 18:33N 37°57' E 023°35'0 0.1
2014-Oct-24 17:34N 37°57' E 023°35'0 0.0
2014-Oct-24 16:33N 37°57' E 023°35'0 0.0
2014-Oct-24 15:34N 37°57' E 023°35'0 0.0
2014-Oct-24 14:33N 37°57' E 023°34'0 0.0
2014-Oct-24 13:33N 37°57' E 023°35'0 0.0
2014-Oct-24 12:33N 37°57' E 023°35'0 0.1
2014-Oct-24 11:33N 37°57' E 023°34'0 0.0
2014-Oct-24 10:33N 37°57' E 023°34'0 0.1
2014-Oct-24 09:33N 37°57' E 023°34'0 0.0
2014-Oct-24 08:34N 37°57' E 023°34'0 0.0
2014-Oct-24 07:33N 37°57' E 023°34'0 0.0
2014-Oct-24 06:33N 37°57' E 023°34'0 0.1
2014-Oct-24 05:33N 37°57' E 023°35'0 0.0
2014-Oct-24 04:33N 37°57' E 023°35'0 0.1
2014-Oct-24 03:33N 37°57' E 023°34'0 0.0
2014-Oct-24 02:33N 37°57' E 023°34'0 0.0
2014-Oct-24 01:33N 37°57' E 023°34'1 0.7
2014-Oct-24 00:33N 37°57' E 023°35'0 0.0
2014-Oct-23 23:34N 37°57' E 023°35'0 0.0
2014-Oct-23 22:33N 37°57' E 023°35'0 0.0
2014-Oct-23 21:34N 37°57' E 023°35'3 2.9
2014-Oct-23 20:33N 37°55' E 023°34'5 5.1
2014-Oct-23 19:33N 37°50' E 023°31'0 0.0
2014-Oct-23 18:33N 37°50' E 023°31'0 0.0
2014-Oct-23 17:33N 37°50' E 023°31'0 0.0
2014-Oct-23 16:33N 37°50' E 023°31'0 0.0
2014-Oct-23 15:33N 37°50' E 023°31'0 0.0
2014-Oct-23 14:33N 37°50' E 023°31'0 0.2
2014-Oct-23 13:33N 37°50' E 023°31'0 0.1
2014-Oct-23 12:33N 37°50' E 023°31'1 0.6
2014-Oct-23 11:33N 37°50' E 023°32'8 7.5
2014-Oct-23 10:33N 37°57' E 023°35'0 0.0
2014-Oct-23 09:33N 37°57' E 023°35'0 0.0
2014-Oct-23 08:33N 37°57' E 023°35'0 0.0
2014-Oct-23 07:34N 37°57' E 023°35'0 0.1
2014-Oct-23 06:34N 37°58' E 023°34'0 0.0
2014-Oct-23 05:33N 37°58' E 023°34'0 0.0
2014-Oct-23 04:34N 37°58' E 023°34'0 0.0
2014-Oct-23 03:33N 37°58' E 023°34'0 0.0
2014-Oct-23 02:33N 37°58' E 023°34'0 0.0
2014-Oct-23 01:33N 37°58' E 023°34'0 0.0
2014-Oct-23 00:33N 37°58' E 023°34'0 0.0
2014-Oct-22 23:34N 37°58' E 023°34'0 0.0
2014-Oct-22 22:33N 37°58' E 023°34'0 0.0
2014-Oct-22 21:33N 37°58' E 023°34'0 0.0
2014-Oct-22 20:33N 37°58' E 023°34'0 0.0
2014-Oct-22 19:33N 37°58' E 023°34'0 0.0
2014-Oct-22 18:33N 37°58' E 023°34'0 0.0
2014-Oct-22 17:34N 37°58' E 023°34'0 0.0
2014-Oct-22 16:34N 37°58' E 023°34'0 0.0
2014-Oct-22 15:33N 37°58' E 023°34'0 0.0
2014-Oct-22 14:33N 37°57' E 023°34'0 0.0
2014-Oct-22 13:33N 37°58' E 023°34'0 0.0
2014-Oct-22 12:34N 37°58' E 023°34'3 3.2
2014-Oct-22 11:34N 37°56' E 023°38'0 0.0
2014-Oct-22 10:33N 37°56' E 023°38'0 0.0
2014-Oct-22 09:34N 37°56' E 023°38'0 0.0
2014-Oct-22 08:33N 37°56' E 023°38'0 0.0
2014-Oct-22 07:34N 37°56' E 023°38'0 0.0
2014-Oct-22 06:33N 37°56' E 023°38'1 1.3
2014-Oct-22 05:33N 37°57' E 023°37'2 1.8
2014-Oct-22 04:33N 37°57' E 023°35'0 0.0
2014-Oct-22 03:33N 37°57' E 023°35'0 0.0
2014-Oct-22 02:33N 37°57' E 023°35'0 0.0
2014-Oct-22 01:34N 37°57' E 023°35'0 0.0
2014-Oct-22 00:33N 37°57' E 023°35'0 0.0
2014-Oct-21 23:34N 37°57' E 023°35'0 0.0
2014-Oct-21 22:34N 37°57' E 023°35'0 0.0
2014-Oct-21 21:33N 37°57' E 023°35'5 5.4
2014-Oct-21 20:33N 37°52' E 023°32'1 0.6
2014-Oct-21 19:33N 37°52' E 023°32'0 0.0
2014-Oct-21 18:33N 37°52' E 023°32'0 0.0
2014-Oct-21 16:33N 37°52' E 023°32'4 3.8
2014-Oct-21 15:33N 37°55' E 023°34'2 2.4
2014-Oct-21 14:33N 37°57' E 023°36'0 0.0
2014-Oct-21 13:33N 37°57' E 023°36'3 3.4
2014-Oct-21 12:33N 37°60' E 023°33'3 2.7
2014-Oct-21 11:33N 38°02' E 023°36'0 0.0
2014-Oct-21 10:33N 38°02' E 023°36'0 0.0
2014-Oct-21 09:33N 38°02' E 023°36'0 0.0
2014-Oct-21 08:33N 38°02' E 023°36'0 0.0
2014-Oct-21 07:33N 38°02' E 023°36'0 0.0
2014-Oct-21 06:33N 38°02' E 023°36'0 0.0
2014-Oct-21 05:33N 38°02' E 023°36'0 0.0
2014-Oct-21 04:33N 38°02' E 023°36'0 0.0
2014-Oct-21 03:33N 38°02' E 023°36'0 0.0
2014-Oct-21 02:33N 38°02' E 023°36'0 0.4
2014-Oct-21 01:33N 38°02' E 023°35'0 0.1
2014-Oct-21 00:33N 38°02' E 023°35'0 0.0
2014-Oct-20 23:33N 38°02' E 023°35'0 0.0
2014-Oct-20 22:20N 38°02' E 023°35'0 0.0
2014-Oct-20 21:33N 38°02' E 023°35'0 0.0
2014-Oct-20 20:23N 38°02' E 023°35'0 0.0
2014-Oct-20 19:32N 38°02' E 023°35'4 4.5
2014-Oct-20 18:33N 37°58' E 023°33'7 6.6
2014-Oct-20 17:33N 37°51' E 023°31'0 0.1
2014-Oct-20 16:33N 37°51' E 023°31'0 0.1
2014-Oct-20 15:33N 37°51' E 023°31'0 0.0
2014-Oct-20 14:33N 37°51' E 023°31'0 0.0
2014-Oct-20 13:33N 37°51' E 023°31'0 0.0
2014-Oct-20 12:33N 37°51' E 023°31'4 3.7
2014-Oct-20 11:33N 37°54' E 023°34'3 3.3
2014-Oct-20 10:33N 37°57' E 023°34'0 0.0
2014-Oct-20 09:33N 37°57' E 023°34'0 0.0
2014-Oct-20 08:33N 37°57' E 023°34'0 0.0
2014-Oct-20 07:33N 37°57' E 023°34'0 0.0
2014-Oct-20 06:34N 37°57' E 023°34'0 0.0
2014-Oct-20 05:33N 37°57' E 023°34'0 0.0
2014-Oct-20 04:33N 37°57' E 023°34'0 0.0
2014-Oct-20 03:33N 37°57' E 023°34'0 0.0
2014-Oct-20 02:33N 37°57' E 023°34'0 0.0
2014-Oct-20 01:33N 37°57' E 023°34'0 0.0
2014-Oct-20 00:33N 37°57' E 023°34'0 0.0
2014-Oct-19 23:33N 37°57' E 023°34'0 0.0
2014-Oct-19 22:33N 37°57' E 023°34'0 0.0
2014-Oct-19 21:33N 37°57' E 023°34'0 0.0
2014-Oct-19 20:33N 37°57' E 023°34'0 0.0
2014-Oct-19 19:33N 37°57' E 023°34'0 0.0
2014-Oct-19 18:33N 37°57' E 023°34'0 0.0
2014-Oct-19 17:33N 37°57' E 023°34'0 0.0
2014-Oct-19 16:33N 37°57' E 023°34'0 0.0
2014-Oct-19 15:33N 37°57' E 023°34'0 0.0
2014-Oct-19 14:33N 37°57' E 023°34'0 0.0
2014-Oct-19 13:33N 37°57' E 023°34'0 0.0
2014-Oct-19 12:33N 37°57' E 023°34'0 0.0
2014-Oct-19 11:33N 37°57' E 023°34'0 0.0
2014-Oct-19 10:33N 37°57' E 023°34'0 0.0
2014-Oct-19 09:33N 37°57' E 023°34'0 0.0
2014-Oct-19 08:33N 37°57' E 023°34'0 0.0
2014-Oct-19 07:33N 37°57' E 023°34'0 0.0
2014-Oct-19 06:33N 37°57' E 023°34'0 0.0
2014-Oct-19 05:33N 37°57' E 023°34'0 0.0
2014-Oct-19 04:33N 37°57' E 023°34'0 0.0
2014-Oct-19 03:33N 37°57' E 023°34'0 0.1
2014-Oct-19 02:33N 37°57' E 023°34'0 0.0
2014-Oct-19 01:33N 37°57' E 023°34'0 0.0
2014-Oct-19 00:33N 37°57' E 023°34'0 0.0
2014-Oct-18 23:33N 37°57' E 023°34'0 0.0
2014-Oct-18 22:33N 37°57' E 023°34'0 0.0
2014-Oct-18 21:33N 37°57' E 023°34'0 0.0
2014-Oct-18 20:33N 37°57' E 023°34'0 0.0
2014-Oct-18 19:33N 37°57' E 023°34'0 0.0
2014-Oct-18 18:33N 37°57' E 023°34'0 0.1
2014-Oct-18 17:33N 37°57' E 023°34'0 0.0
2014-Oct-18 16:33N 37°57' E 023°34'0 0.0
2014-Oct-18 15:33N 37°57' E 023°34'0 0.0
2014-Oct-18 14:33N 37°57' E 023°34'0 0.1
2014-Oct-18 13:33N 37°57' E 023°34'0 0.0
2014-Oct-18 12:33N 37°57' E 023°34'0 0.0
2014-Oct-18 11:33N 37°57' E 023°34'0 0.0
2014-Oct-18 10:33N 37°57' E 023°34'0 0.0
2014-Oct-18 09:33N 37°57' E 023°34'0 0.0
2014-Oct-18 08:33N 37°57' E 023°34'0 0.0
2014-Oct-18 07:33N 37°57' E 023°34'0 0.0
2014-Oct-18 06:33N 37°57' E 023°34'0 0.0
2014-Oct-18 05:33N 37°57' E 023°34'0 0.0
2014-Oct-18 04:33N 37°57' E 023°34'0 0.0
2014-Oct-18 03:33N 37°57' E 023°34'0 0.0
2014-Oct-18 02:33N 37°57' E 023°34'0 0.1
2014-Oct-18 01:33N 37°57' E 023°34'8 7.7
2014-Oct-18 00:33N 37°52' E 023°27'1210.9
2014-Oct-17 23:28N 37°54' E 023°13'6 6.6
2014-Oct-17 22:33N 37°55' E 023°05'0 0.0
2014-Oct-17 21:33N 37°55' E 023°05'0 0.0
2014-Oct-17 20:30N 37°55' E 023°05'0 0.0
2014-Oct-17 19:20N 37°55' E 023°05'0 0.0
2014-Oct-17 18:32N 37°55' E 023°05'0 0.0
2014-Oct-17 17:33N 37°55' E 023°05'0 0.0
2014-Oct-17 16:30N 37°55' E 023°05'0 0.0
2014-Oct-17 15:33N 37°55' E 023°05'0 0.0
2014-Oct-17 14:26N 37°55' E 023°05'0 0.0
2014-Oct-17 13:30N 37°55' E 023°05'15 3.0
2014-Oct-17 08:33N 37°52' E 023°23'7 6.6
2014-Oct-17 07:33N 37°53' E 023°32'0 0.0
2014-Oct-17 06:33N 37°53' E 023°32'0 0.1
2014-Oct-17 05:33N 37°53' E 023°32'0 0.0
2014-Oct-17 04:33N 37°53' E 023°32'0 0.1
2014-Oct-17 03:33N 37°53' E 023°32'0 0.1
2014-Oct-17 02:33N 37°52' E 023°32'0 0.1
2014-Oct-17 01:33N 37°53' E 023°32'0 0.1
2014-Oct-17 00:33N 37°53' E 023°32'5 4.9
2014-Oct-16 23:31N 37°57' E 023°35'0 0.0
2014-Oct-16 22:33N 37°57' E 023°35'0 0.0
2014-Oct-16 21:33N 37°57' E 023°35'0 0.0
2014-Oct-16 20:33N 37°57' E 023°35'0 0.0
2014-Oct-16 19:33N 37°57' E 023°35'0 0.0
2014-Oct-16 18:33N 37°57' E 023°35'0 0.0
2014-Oct-16 17:33N 37°57' E 023°35'0 0.0
2014-Oct-16 16:33N 37°57' E 023°35'0 0.0
2014-Oct-16 15:33N 37°57' E 023°35'0 0.0
2014-Oct-16 14:33N 37°57' E 023°35'0 0.2
2014-Oct-16 13:33N 37°57' E 023°34'0 0.0
2014-Oct-16 12:33N 37°57' E 023°34'0 0.0
2014-Oct-16 11:33N 37°57' E 023°34'0 0.0
2014-Oct-16 10:33N 37°57' E 023°34'0 0.0
2014-Oct-16 09:33N 37°57' E 023°34'0 0.1
2014-Oct-16 08:33N 37°57' E 023°34'1 1.1
2014-Oct-16 07:33N 37°57' E 023°36'1 1.0
2014-Oct-16 06:33N 37°57' E 023°34'0 0.2
2014-Oct-16 05:33N 37°57' E 023°34'0 0.0
2014-Oct-16 04:33N 37°57' E 023°34'0 0.0
2014-Oct-16 03:33N 37°57' E 023°34'0 0.0
2014-Oct-16 02:33N 37°57' E 023°34'0 0.0
2014-Oct-16 01:33N 37°57' E 023°34'0 0.0
2014-Oct-16 00:33N 37°57' E 023°34'0 0.0
2014-Oct-15 23:33N 37°57' E 023°34'0 0.0
2014-Oct-15 22:32N 37°57' E 023°34'0 0.0
2014-Oct-15 21:33N 37°57' E 023°34'0 0.0
2014-Oct-15 20:33N 37°57' E 023°34'  

Dump ship's entire track history